createdAt,value
2018-03-03T00:00:17.962Z,95830
2018-03-03T00:02:46.164Z,95835
2018-03-03T00:05:14.342Z,95835
2018-03-03T00:07:42.519Z,95834
2018-03-03T00:10:10.723Z,95838
2018-03-03T00:12:39.664Z,95841
2018-03-03T00:15:07.842Z,95844
2018-03-03T00:17:36.014Z,95847
2018-03-03T00:20:04.198Z,95851
2018-03-03T00:22:41.912Z,95852
2018-03-03T00:25:10.318Z,95848
2018-03-03T00:27:39.271Z,95850
2018-03-03T00:30:07.487Z,95857
2018-03-03T00:32:36.420Z,95859
2018-03-03T00:35:04.598Z,95859
2018-03-03T00:37:32.771Z,95861
2018-03-03T00:40:01.145Z,95876
2018-03-03T00:42:29.325Z,95868
2018-03-03T00:44:57.503Z,95877
2018-03-03T00:47:25.732Z,95875
2018-03-03T00:49:54.710Z,95872
2018-03-03T00:52:22.887Z,95872
2018-03-03T00:54:51.840Z,95874
2018-03-03T00:57:20.013Z,95862
2018-03-03T00:59:48.193Z,95865
2018-03-03T01:02:16.404Z,95869
2018-03-03T01:04:45.533Z,95866
2018-03-03T02:29:11.406Z,95928
2018-03-03T02:31:40.354Z,95924
2018-03-03T02:34:08.534Z,95925
2018-03-03T02:36:36.733Z,95916
2018-03-03T02:39:05.722Z,95918
2018-03-03T02:41:34.681Z,95921
2018-03-03T02:44:02.862Z,95924
2018-03-03T02:46:31.051Z,95927
2018-03-03T02:48:59.248Z,95932
2018-03-03T02:51:28.208Z,95930
2018-03-03T02:53:56.398Z,95937
2018-03-03T02:56:24.580Z,95931
2018-03-03T02:58:52.766Z,95930
2018-03-03T03:01:21.710Z,95930
2018-03-03T03:03:49.888Z,95936
2018-03-03T03:06:18.107Z,95931
2018-03-03T03:08:47.057Z,95932
2018-03-03T03:11:15.255Z,95926
2018-03-03T03:13:43.446Z,95936
2018-03-03T03:16:12.393Z,95937
2018-03-03T03:18:40.683Z,95922
2018-03-03T03:21:08.878Z,95939
2018-03-03T03:23:37.071Z,95937
2018-03-03T03:26:06.010Z,95932
2018-03-03T03:28:34.185Z,95933
2018-03-03T03:31:02.399Z,95932
2018-03-03T03:33:30.590Z,95936
2018-03-03T03:35:59.550Z,95936
2018-03-03T03:38:27.746Z,95928
2018-03-03T03:40:55.976Z,95922
2018-03-03T03:43:24.153Z,95926
2018-03-03T03:45:52.326Z,95929
2018-03-03T03:48:20.509Z,95927
2018-03-03T03:50:48.732Z,95931
2018-03-03T03:53:17.672Z,95934
2018-03-03T03:55:45.860Z,95938
2018-03-03T03:58:14.051Z,95940
2018-03-03T04:00:42.234Z,95935
2018-03-03T04:03:10.411Z,95932
2018-03-03T04:05:39.366Z,95932
2018-03-03T04:08:07.551Z,95934
2018-03-03T04:10:35.756Z,95933
2018-03-03T04:13:03.943Z,95927
2018-03-03T04:15:32.907Z,95925
2018-03-03T04:18:01.103Z,95920
2018-03-03T04:20:30.051Z,95918
2018-03-03T04:22:58.230Z,95920
2018-03-03T04:25:26.434Z,95913
2018-03-03T04:27:54.651Z,95917
2018-03-03T04:30:22.859Z,95918
2018-03-03T04:32:51.080Z,95915
2018-03-03T04:35:20.045Z,95918
2018-03-03T04:37:48.262Z,95924
2018-03-03T04:40:16.436Z,95919
2018-03-03T04:42:44.636Z,95916
2018-03-03T04:45:12.845Z,95916
2018-03-03T04:47:41.066Z,95918
2018-03-03T04:50:09.290Z,95917
2018-03-03T04:52:37.485Z,95918
2018-03-03T04:55:05.672Z,95913
2018-03-03T04:57:34.642Z,95907
2018-03-03T05:03:09.867Z,95900
2018-03-03T05:05:43.539Z,95903
2018-03-03T05:08:15.398Z,95903
2018-03-03T05:10:44.385Z,95913
2018-03-03T05:13:15.157Z,95913
2018-03-03T05:15:43.745Z,95915
2018-03-03T05:18:17.577Z,95918
2018-03-03T05:20:51.250Z,95920
2018-03-03T05:26:28.663Z,95913
2018-03-03T05:29:02.451Z,95915
2018-03-03T05:31:36.153Z,95915
2018-03-03T05:37:05.624Z,95926
2018-03-03T05:39:39.308Z,95927
2018-03-03T05:42:12.937Z,95921
2018-03-03T05:44:53.859Z,95924
2018-03-03T05:47:26.418Z,95929
2018-03-03T05:50:00.972Z,95927
2018-03-03T05:52:34.871Z,95929
2018-03-03T05:55:08.659Z,95925
2018-03-03T05:57:43.114Z,95933
2018-03-03T06:00:16.822Z,95930
2018-03-03T06:02:50.651Z,95920
2018-03-03T06:05:24.330Z,95927
2018-03-03T06:07:58.001Z,95931
2018-03-03T06:10:27.493Z,95932
2018-03-03T06:12:56.446Z,95932
2018-03-03T06:15:24.671Z,95933
2018-03-03T06:17:53.796Z,95941
2018-03-03T06:20:22.009Z,95944
2018-03-03T06:22:50.199Z,95945
2018-03-03T06:25:18.411Z,95948
2018-03-03T06:27:46.610Z,95950
2018-03-03T06:30:14.794Z,95965
2018-03-03T06:32:42.984Z,95966
2018-03-03T06:35:11.174Z,95969
2018-03-03T06:37:39.365Z,95971
2018-03-03T06:40:08.318Z,95964
2018-03-03T06:42:36.523Z,95962
2018-03-03T06:45:04.737Z,95982
2018-03-03T06:47:32.923Z,95977
2018-03-03T06:50:01.130Z,95976
2018-03-03T06:52:29.357Z,95975
2018-03-03T06:54:57.550Z,95966
2018-03-03T06:57:25.738Z,95968
2018-03-03T06:59:53.923Z,95964
2018-03-03T07:02:22.108Z,95955
2018-03-03T07:04:50.345Z,95951
2018-03-03T07:07:18.551Z,95947
2018-03-03T07:09:46.750Z,95955
2018-03-03T07:12:14.971Z,95963
2018-03-03T07:14:43.178Z,95971
2018-03-03T07:17:11.414Z,95964
2018-03-03T07:19:39.600Z,95960
2018-03-03T07:22:07.789Z,95955
2018-03-03T07:24:35.979Z,95956
2018-03-03T07:27:04.167Z,95959
2018-03-03T07:29:32.354Z,95959
2018-03-03T07:32:01.335Z,95960
2018-03-03T07:34:29.526Z,95952
2018-03-03T07:36:58.492Z,95960
2018-03-03T07:39:26.696Z,95962
2018-03-03T07:41:55.652Z,95971
2018-03-03T07:44:23.832Z,95964
2018-03-03T07:46:52.024Z,95959
2018-03-03T07:49:20.221Z,95959
2018-03-03T07:51:49.165Z,95967
2018-03-03T07:54:17.380Z,95970
2018-03-03T07:59:47.977Z,95982
2018-03-03T08:02:16.193Z,95982
2018-03-03T08:04:44.486Z,95971
2018-03-03T08:07:13.474Z,95962
2018-03-03T08:09:42.442Z,95954
2018-03-03T08:12:10.627Z,95949
2018-03-03T08:14:38.845Z,95946
2018-03-03T08:17:07.038Z,95941
2018-03-03T08:19:35.579Z,95939
2018-03-03T08:22:03.825Z,95939
2018-03-03T08:24:32.019Z,95945
2018-03-03T08:27:00.244Z,95945
2018-03-03T08:29:28.436Z,95953
2018-03-03T08:31:56.644Z,95952
2018-03-03T08:34:24.826Z,95954
2018-03-03T08:36:53.859Z,95946
2018-03-03T08:39:22.070Z,95935
2018-03-03T08:41:50.246Z,95940
2018-03-03T08:44:18.443Z,95938
2018-03-03T08:46:46.628Z,95942
2018-03-03T08:49:15.592Z,95953
2018-03-03T08:51:43.870Z,95949
2018-03-03T08:54:12.076Z,95950
2018-03-03T08:56:41.026Z,95955
2018-03-03T08:59:09.223Z,95959
2018-03-03T09:01:37.399Z,95957
2018-03-03T09:04:05.577Z,95957
2018-03-03T09:06:33.782Z,95971
2018-03-03T09:09:01.977Z,95970
2018-03-03T09:11:30.154Z,95952
2018-03-03T09:13:58.326Z,95955
2018-03-03T09:16:26.515Z,95954
2018-03-03T09:18:54.681Z,95934
2018-03-03T09:21:22.865Z,95929
2018-03-03T09:23:51.047Z,95924
2018-03-03T09:26:19.222Z,95923
2018-03-03T09:28:47.423Z,95922
2018-03-03T09:31:15.617Z,95918
2018-03-03T09:33:43.801Z,95925
2018-03-03T09:36:11.996Z,95916
2018-03-03T09:38:40.173Z,95906
2018-03-03T09:41:08.366Z,95908
2018-03-03T09:43:37.299Z,95916
2018-03-03T09:46:06.303Z,95904
2018-03-03T09:48:34.466Z,95913
2018-03-03T09:51:03.408Z,95911
2018-03-03T09:53:31.592Z,95917
2018-03-03T09:55:59.804Z,95910
2018-03-03T09:58:28.751Z,95910
2018-03-03T10:00:56.964Z,95912
2018-03-03T10:03:25.210Z,95908
2018-03-03T10:05:53.378Z,95901
2018-03-03T10:08:21.547Z,95898
2018-03-03T10:10:49.730Z,95900
2018-03-03T10:13:17.910Z,95907
2018-03-03T10:15:46.252Z,95909
2018-03-03T10:18:14.421Z,95909
2018-03-03T10:20:42.625Z,95902
2018-03-03T10:23:10.801Z,95906
2018-03-03T10:25:38.990Z,95908
2018-03-03T10:28:07.175Z,95906
2018-03-03T10:30:35.362Z,95908
2018-03-03T10:33:03.605Z,95907
2018-03-03T10:35:31.768Z,95904
2018-03-03T10:37:59.945Z,95908
2018-03-03T10:40:28.156Z,95903
2018-03-03T10:42:56.351Z,95901
2018-03-03T10:45:25.358Z,95889
2018-03-03T10:47:53.548Z,95889
2018-03-03T10:50:21.720Z,95893
2018-03-03T10:52:49.906Z,95882
2018-03-03T10:55:18.095Z,95884
2018-03-03T10:57:46.280Z,95893
2018-03-03T11:00:29.234Z,95885
2018-03-03T11:02:57.437Z,95892
2018-03-03T11:05:25.641Z,95881
2018-03-03T11:07:53.842Z,95868
2018-03-03T11:10:22.031Z,95859
2018-03-03T11:12:50.208Z,95864
2018-03-03T11:15:18.412Z,95866
2018-03-03T11:17:46.606Z,95862
2018-03-03T11:20:14.785Z,95867
2018-03-03T11:22:42.988Z,95863
2018-03-03T11:25:11.171Z,95857
2018-03-03T11:27:39.376Z,95851
2018-03-03T11:30:08.349Z,95846
2018-03-03T11:32:36.532Z,95841
2018-03-03T11:35:05.471Z,95831
2018-03-03T11:37:33.643Z,95819
2018-03-03T11:40:01.816Z,95811
2018-03-03T11:42:29.996Z,95810
2018-03-03T11:44:58.214Z,95816
2018-03-03T11:47:26.398Z,95817
2018-03-03T11:49:55.357Z,95809
2018-03-03T11:52:23.544Z,95813
2018-03-03T11:54:51.730Z,95810
2018-03-03T11:57:19.905Z,95805
2018-03-03T11:59:48.090Z,95798
2018-03-03T12:02:17.040Z,95804
2018-03-03T12:04:45.225Z,95803
2018-03-03T12:07:13.404Z,95802
2018-03-03T12:09:41.610Z,95794
2018-03-03T12:12:10.576Z,95794
2018-03-03T12:14:38.758Z,95798
2018-03-03T12:17:06.953Z,95797
2018-03-03T12:19:35.916Z,95798
2018-03-03T12:22:04.096Z,95796
2018-03-03T12:24:32.271Z,95794
2018-03-03T12:27:00.443Z,95795
2018-03-03T12:29:28.643Z,95786
2018-03-03T12:31:57.601Z,95791
2018-03-03T12:34:25.812Z,95790
2018-03-03T12:36:54.782Z,95789
2018-03-03T12:39:22.974Z,95786
2018-03-03T12:41:51.147Z,95786
2018-03-03T12:44:19.347Z,95781
2018-03-03T12:46:48.280Z,95780
2018-03-03T12:49:16.470Z,95782
2018-03-03T12:51:44.662Z,95774
2018-03-03T12:54:12.873Z,95772
2018-03-03T12:56:41.056Z,95774
2018-03-03T12:59:09.242Z,95771
2018-03-03T13:01:37.427Z,95767
2018-03-03T13:04:05.609Z,95765
2018-03-03T13:06:33.790Z,95767
2018-03-03T13:09:01.986Z,95767
2018-03-03T13:11:30.168Z,95766
2018-03-03T13:13:59.179Z,95771
2018-03-03T13:16:28.121Z,95781
2018-03-03T13:18:56.287Z,95776
2018-03-03T13:21:24.483Z,95774
2018-03-03T13:23:52.655Z,95775
2018-03-03T13:26:20.886Z,95765
2018-03-03T13:28:49.062Z,95759
2018-03-03T13:31:17.278Z,95752
2018-03-03T13:33:45.452Z,95751
2018-03-03T13:36:13.644Z,95758
2018-03-03T13:38:41.851Z,95769
2018-03-03T13:41:10.787Z,95767
2018-03-03T13:43:38.956Z,95768
2018-03-03T13:46:07.138Z,95772
2018-03-03T13:48:35.342Z,95761
2018-03-03T13:51:03.525Z,95751
2018-03-03T13:53:32.467Z,95754
2018-03-03T13:56:00.646Z,95749
2018-03-03T13:58:28.818Z,95750
2018-03-03T14:00:56.994Z,95745
2018-03-03T14:03:25.198Z,95738
2018-03-03T14:05:53.418Z,95736
2018-03-03T14:08:21.607Z,95737
2018-03-03T14:10:49.808Z,95737
2018-03-03T14:13:18.019Z,95738
2018-03-03T14:15:46.985Z,95726
2018-03-03T14:18:15.184Z,95724
2018-03-03T14:20:44.144Z,95732
2018-03-03T14:23:12.326Z,95727
2018-03-03T14:25:40.543Z,95719
2018-03-03T14:28:08.741Z,95720
2018-03-03T14:30:36.914Z,95721
2018-03-03T14:33:05.122Z,95723
2018-03-03T14:35:33.345Z,95725
2018-03-03T14:38:01.530Z,95720
2018-03-03T14:40:29.738Z,95731
2018-03-03T14:42:57.927Z,95725
2018-03-03T14:45:26.110Z,95723
2018-03-03T14:47:54.283Z,95720
2018-03-03T14:50:22.489Z,95719
2018-03-03T14:52:50.682Z,95716
2018-03-03T14:55:18.865Z,95718
2018-03-03T14:57:47.038Z,95716
2018-03-03T15:00:15.218Z,95716
2018-03-03T15:02:43.410Z,95713
2018-03-03T15:05:11.620Z,95709
2018-03-03T15:07:39.813Z,95704
2018-03-03T15:10:08.754Z,95703
2018-03-03T15:12:36.969Z,95701
2018-03-03T15:15:05.907Z,95703
2018-03-03T15:17:34.091Z,95704
2018-03-03T15:20:02.275Z,95700
2018-03-03T15:22:30.498Z,95701
2018-03-03T15:24:59.479Z,95700
2018-03-03T15:27:28.431Z,95702
2018-03-03T15:29:56.605Z,95691
2018-03-03T15:32:24.782Z,95692
2018-03-03T15:34:52.996Z,95692
2018-03-03T15:37:21.963Z,95693
2018-03-03T15:39:50.141Z,95693
2018-03-03T15:42:18.338Z,95697
2018-03-03T15:44:47.297Z,95696
2018-03-03T15:47:15.527Z,95700
2018-03-03T15:49:43.719Z,95702
2018-03-03T15:52:11.918Z,95698
2018-03-03T15:54:40.219Z,95697
2018-03-03T15:57:08.408Z,95690
2018-03-03T15:59:37.377Z,95699
2018-03-03T16:02:05.566Z,95696
2018-03-03T16:04:33.753Z,95696
2018-03-03T16:07:02.703Z,95699
2018-03-03T16:09:30.907Z,95699
2018-03-03T16:11:59.097Z,95702
2018-03-03T16:14:28.055Z,95706
2018-03-03T16:16:56.262Z,95709
2018-03-03T16:19:25.220Z,95709
2018-03-03T16:21:53.399Z,95713
2018-03-03T16:24:21.582Z,95711
2018-03-03T16:26:49.756Z,95719
2018-03-03T16:29:18.086Z,95715
2018-03-03T16:31:46.270Z,95718
2018-03-03T16:34:14.451Z,95732
2018-03-03T16:36:42.650Z,95724
2018-03-03T16:39:10.835Z,95721
2018-03-03T16:41:39.023Z,95730
2018-03-03T16:44:07.991Z,95731
2018-03-03T16:46:36.221Z,95736
2018-03-03T18:11:02.896Z,95840
2018-03-03T18:13:32.747Z,95849
2018-03-03T18:16:00.970Z,95850
2018-03-03T18:18:32.922Z,95855
2018-03-03T18:21:01.167Z,95857
2018-03-03T18:23:29.358Z,95856
2018-03-03T18:25:57.531Z,95861
2018-03-03T18:28:25.732Z,95869
2018-03-03T18:30:53.919Z,95868
2018-03-03T18:33:22.120Z,95871
2018-03-03T18:35:50.307Z,95869
2018-03-03T18:38:18.479Z,95869
2018-03-03T18:40:46.662Z,95874
2018-03-03T18:43:14.850Z,95871
2018-03-03T18:45:43.265Z,95879
2018-03-03T18:48:11.468Z,95885
2018-03-03T18:50:40.449Z,95877
2018-03-03T18:53:09.408Z,95886
2018-03-03T18:55:37.776Z,95889
2018-03-03T18:58:06.051Z,95888
2018-03-03T19:00:34.226Z,95878
2018-03-03T19:03:02.465Z,95883
2018-03-03T19:05:30.619Z,95890
2018-03-03T19:07:58.802Z,95893
2018-03-03T19:10:27.847Z,95893
2018-03-03T19:12:56.027Z,95889
2018-03-03T19:15:24.213Z,95893
2018-03-03T19:17:52.435Z,95893
2018-03-03T19:20:21.381Z,95897
2018-03-03T19:22:49.556Z,95898
2018-03-03T19:25:17.783Z,95899
2018-03-03T19:27:45.989Z,95899
2018-03-03T19:30:14.178Z,95899
2018-03-03T19:32:42.350Z,95900
2018-03-03T19:35:10.528Z,95904
2018-03-03T19:37:38.729Z,95910
2018-03-03T19:40:06.912Z,95909
2018-03-03T19:42:35.874Z,95916
2018-03-03T19:45:04.058Z,95917
2018-03-03T19:47:32.253Z,95924
2018-03-03T19:50:00.450Z,95921
2018-03-03T19:52:28.653Z,95920
2018-03-03T19:54:56.863Z,95919
2018-03-03T19:57:25.071Z,95925
2018-03-03T19:59:53.315Z,95929
2018-03-03T20:02:21.499Z,95939
2018-03-03T20:04:49.674Z,95939
2018-03-03T20:07:17.838Z,95934
2018-03-03T20:09:46.019Z,95940
2018-03-03T20:12:14.230Z,95940
2018-03-03T20:14:42.410Z,95941
2018-03-03T20:17:10.587Z,95947
2018-03-03T20:19:38.806Z,95941
2018-03-03T20:22:06.986Z,95944
2018-03-03T20:24:35.193Z,95936
2018-03-03T20:27:04.130Z,95937
2018-03-03T20:29:32.494Z,95936
2018-03-03T20:32:00.655Z,95938
2018-03-03T20:34:28.831Z,95940
2018-03-03T20:36:57.026Z,95934
2018-03-03T20:39:25.204Z,95935
2018-03-03T20:41:53.408Z,95938
2018-03-03T20:44:21.594Z,95940
2018-03-03T20:46:49.788Z,95946
2018-03-03T20:49:18.813Z,95949
2018-03-03T20:51:46.990Z,95951
2018-03-03T20:54:15.194Z,95950
2018-03-03T20:56:43.381Z,95953
2018-03-03T20:59:11.581Z,95953
2018-03-03T21:01:40.535Z,95953
2018-03-03T21:04:09.297Z,95957
2018-03-03T21:06:37.507Z,95956
2018-03-03T21:09:05.720Z,95961
2018-03-03T21:11:37.573Z,95956
2018-03-03T21:14:06.550Z,95958
2018-03-03T21:16:34.729Z,95961
2018-03-03T21:19:03.688Z,95955
2018-03-03T21:21:31.884Z,95957
2018-03-03T21:24:00.069Z,95958
2018-03-03T21:26:29.025Z,95960
2018-03-03T21:28:57.233Z,95955
2018-03-03T21:31:25.432Z,95959
2018-03-03T21:33:54.371Z,95963
2018-03-03T21:36:22.588Z,95960
2018-03-03T21:38:51.535Z,95966
2018-03-03T21:41:19.705Z,95970
2018-03-03T21:43:47.969Z,95967
2018-03-03T21:46:16.168Z,95969
2018-03-03T21:48:44.363Z,95970
2018-03-03T21:51:12.547Z,95972
2018-03-03T21:53:40.731Z,95977
2018-03-03T21:56:09.691Z,95979
2018-03-03T21:58:37.882Z,95983
2018-03-03T22:01:06.073Z,95985
2018-03-03T22:03:35.006Z,95996
2018-03-03T22:06:03.362Z,96000
2018-03-03T22:08:31.535Z,96005
2018-03-03T22:11:00.467Z,96011
2018-03-03T22:13:28.663Z,96011
2018-03-03T22:15:56.880Z,96012
2018-03-03T22:18:25.083Z,96010
2018-03-03T22:20:53.294Z,96015
2018-03-03T22:23:21.488Z,96022
2018-03-03T22:25:50.446Z,96022
2018-03-03T22:28:18.707Z,96028
2018-03-03T22:30:46.887Z,96037
2018-03-03T22:33:15.069Z,96045
2018-03-03T22:35:43.407Z,96044
2018-03-03T22:38:11.650Z,96045
2018-03-03T22:40:39.836Z,96047
2018-03-03T22:43:08.821Z,96051
2018-03-03T22:45:37.782Z,96053
2018-03-03T22:48:06.039Z,96053
2018-03-03T22:50:34.221Z,96058
2018-03-03T22:53:02.461Z,96057
2018-03-03T22:55:30.665Z,96066
2018-03-03T22:57:58.877Z,96069
2018-03-03T23:00:27.085Z,96069
2018-03-03T23:02:55.285Z,96070
2018-03-03T23:05:23.468Z,96072
2018-03-03T23:07:51.675Z,96080
2018-03-03T23:10:19.873Z,96084
2018-03-03T23:12:48.815Z,96088
2018-03-03T23:15:17.016Z,96090
2018-03-03T23:17:45.276Z,96096
2018-03-03T23:20:13.468Z,96106
2018-03-03T23:22:41.685Z,96115
2018-03-03T23:25:09.877Z,96120
2018-03-03T23:27:38.063Z,96125
2018-03-03T23:30:06.298Z,96127
2018-03-03T23:32:35.330Z,96126
2018-03-03T23:35:03.614Z,96127
2018-03-03T23:37:31.780Z,96130
2018-03-03T23:40:00.011Z,96130
2018-03-03T23:42:28.967Z,96134
2018-03-03T23:44:57.152Z,96143
2018-03-03T23:47:25.359Z,96147
2018-03-03T23:49:54.317Z,96150
2018-03-03T23:52:22.511Z,96146
2018-03-03T23:54:50.692Z,96156
2018-03-03T23:57:18.976Z,96166
2018-03-03T23:59:47.163Z,96171
